Mc Intosh, South Dakota
Current Conditions -  °F | °C
As of 8:53 AM on Friday 28 Nov 2014 (Local Time) from KHEI Reporting Station
Clear Clear  
Wind Chill: 31°   Ceiling: Unl
Heat Index: 31°   Visibility: 10mi
Dew Point: 25°   Wind: 0mph
Humidity: 79%   Direction: NA
Pressure: 29.64"   Gusts: NA
Location:  45.6857°N, 101.624°W
Report Text: KHEI 281553Z AUTO 00000KT 10SM CLR M01/M04 A2964 RMK AO2 SLP066 T10061039
Loading
Personal Weather Stations






























Interactive Weather Map New forecast layout! Learn more

10-Day Weather Forecast

Advertisements
Track Severe Weather on mobile